Time;durP1;ratioP1;P1;durP2;ratioP2;P2;SDS_P1;SDS_P2;PMS_P1;PMS_P2;Temp;Humidity;BMP_temperature;BMP_pressure;BME280_temperature;BME280_humidity;BME280_pressure;Samples;Min_cycle;Max_cycle;Signal;HPM_P1;HPM_P2
2023/06/26 00:01:20;;;;;;;7.72;6.40;;;25.60;56.60;;;;;;5051884;28;20033;-76
2023/06/26 00:03:47;;;;;;;7.30;6.47;;;25.60;56.50;;;;;;5051749;28;20492;-76
2023/06/26 00:06:13;;;;;;;10.30;6.70;;;25.60;56.50;;;;;;5052013;28;20430;-76
2023/06/26 00:08:39;;;;;;;8.02;6.68;;;25.60;56.40;;;;;;5051872;28;20183;-73
2023/06/26 00:11:05;;;;;;;11.25;7.10;;;25.60;56.50;;;;;;5050435;28;20112;-75
2023/06/26 00:13:30;;;;;;;7.55;6.05;;;25.60;56.50;;;;;;5052183;28;20025;-71
2023/06/26 00:15:56;;;;;;;12.27;7.93;;;25.60;56.60;;;;;;5050346;28;20195;-75
2023/06/26 00:18:23;;;;;;;7.93;7.00;;;25.50;56.70;;;;;;5051870;28;20099;-75
2023/06/26 00:20:49;;;;;;;9.43;6.32;;;25.50;56.80;;;;;;5052054;28;20025;-74
2023/06/26 00:23:16;;;;;;;7.85;6.60;;;25.50;57.10;;;;;;5051786;28;20104;-73
2023/06/26 00:25:43;;;;;;;8.68;6.78;;;25.50;57.40;;;;;;5050555;28;20022;-76
2023/06/26 00:28:09;;;;;;;7.07;6.22;;;25.50;57.50;;;;;;5051515;28;20087;-74
2023/06/26 00:30:34;;;;;;;7.65;6.20;;;25.50;57.60;;;;;;5051782;28;20017;-73
2023/06/26 00:33:01;;;;;;;9.70;6.80;;;25.40;57.50;;;;;;5051701;28;20025;-74
2023/06/26 00:35:27;;;;;;;9.73;6.95;;;25.40;57.70;;;;;;5051559;28;20516;-73
2023/06/26 00:37:52;;;;;;;10.20;6.57;;;25.40;58.20;;;;;;5051285;28;20031;-74
2023/06/26 00:40:18;;;;;;;11.18;6.88;;;25.40;59.00;;;;;;5051692;28;20484;-70
2023/06/26 00:42:44;;;;;;;7.10;6.40;;;25.40;59.50;;;;;;5052734;28;20051;-75
2023/06/26 00:45:10;;;;;;;7.43;6.68;;;25.40;59.80;;;;;;5055085;28;20473;-71
2023/06/26 00:47:37;;;;;;;7.78;6.97;;;25.40;59.60;;;;;;5055108;28;20035;-75
2023/06/26 00:50:03;;;;;;;10.60;6.50;;;25.40;59.10;;;;;;5055395;28;20025;-75
2023/06/26 00:52:29;;;;;;;7.70;6.90;;;25.30;58.80;;;;;;5054874;28;20075;-76
2023/06/26 00:54:56;;;;;;;8.68;7.40;;;25.30;58.80;;;;;;5054808;28;20052;-76
2023/06/26 00:57:21;;;;;;;10.05;6.28;;;25.20;58.70;;;;;;5054579;28;20477;-77
2023/06/26 00:59:49;;;;;;;8.30;6.72;;;25.20;58.30;;;;;;5051529;28;20040;-76
2023/06/26 01:02:17;;;;;;;7.65;6.85;;;25.20;58.00;;;;;;5052039;28;20040;-75
2023/06/26 01:04:46;;;;;;;7.57;6.72;;;25.20;58.10;;;;;;5051604;28;20048;-75
2023/06/26 01:07:13;;;;;;;8.57;7.00;;;25.20;58.30;;;;;;5054440;28;20036;-75
2023/06/26 01:09:40;;;;;;;7.72;6.93;;;25.20;58.60;;;;;;5054876;28;20021;-76
2023/06/26 01:12:06;;;;;;;12.35;7.03;;;25.20;58.90;;;;;;5054557;28;20025;-76
2023/06/26 01:14:32;;;;;;;10.98;6.95;;;25.20;59.10;;;;;;5053025;28;20025;-76
2023/06/26 01:17:01;;;;;;;9.27;6.90;;;25.20;59.40;;;;;;5054078;28;20092;-74
2023/06/26 01:19:30;;;;;;;9.20;7.28;;;25.20;59.90;;;;;;5054297;28;20040;-76
2023/06/26 01:22:14;;;;;;;8.35;6.70;;;25.20;60.10;;;;;;5054170;28;20055;-75
2023/06/26 01:24:48;;;;;;;9.45;6.95;;;25.10;60.30;;;;;;5054183;28;20021;-75
2023/06/26 01:27:14;;;;;;;10.40;7.70;;;25.10;60.90;;;;;;5054201;28;20032;-76
2023/06/26 01:29:42;;;;;;;8.10;6.70;;;25.10;61.50;;;;;;5054083;28;20113;-76
2023/06/26 01:32:08;;;;;;;9.00;7.07;;;25.10;61.70;;;;;;5054433;28;20025;-76
2023/06/26 01:34:34;;;;;;;7.95;7.15;;;25.10;61.50;;;;;;5054290;28;20044;-76
2023/06/26 01:37:00;;;;;;;8.77;7.22;;;25.00;61.30;;;;;;5053662;28;20098;-74
2023/06/26 01:39:25;;;;;;;8.18;7.35;;;25.00;61.40;;;;;;5054063;28;20029;-76
2023/06/26 01:41:51;;;;;;;8.15;7.25;;;25.00;61.70;;;;;;5054031;28;20040;-75
2023/06/26 01:44:29;;;;;;;7.85;7.05;;;24.90;61.30;;;;;;5053813;28;20052;-76
2023/06/26 01:47:05;;;;;;;10.07;6.95;;;24.90;61.10;;;;;;5054240;28;20100;-77
2023/06/26 01:49:44;;;;;;;9.07;7.20;;;24.90;61.00;;;;;;5053575;28;20067;-76
2023/06/26 01:52:21;;;;;;;7.97;7.18;;;24.90;61.20;;;;;;5053976;28;20516;-75
2023/06/26 01:55:01;;;;;;;9.63;6.78;;;24.90;60.80;;;;;;5052334;28;20097;-76
2023/06/26 01:57:28;;;;;;;11.82;7.50;;;24.90;60.30;;;;;;5052444;28;20086;-75
2023/06/26 01:59:55;;;;;;;9.00;7.07;;;24.80;60.30;;;;;;5052535;28;20104;-75
2023/06/26 02:02:24;;;;;;;8.18;7.15;;;24.90;60.20;;;;;;5053619;28;20021;-75
2023/06/26 02:04:50;;;;;;;16.27;7.20;;;24.80;60.20;;;;;;5053149;28;20021;-73
2023/06/26 02:07:16;;;;;;;8.98;7.28;;;24.80;60.30;;;;;;5053751;28;20403;-75
2023/06/26 02:09:43;;;;;;;8.27;7.00;;;24.80;61.20;;;;;;5053249;28;20024;-75
2023/06/26 02:12:09;;;;;;;8.02;6.55;;;24.80;61.30;;;;;;5053386;28;20448;-75
2023/06/26 02:14:35;;;;;;;8.82;7.25;;;24.80;61.90;;;;;;5053704;28;20010;-74
2023/06/26 02:17:01;;;;;;;12.48;7.70;;;24.70;61.60;;;;;;5052139;28;20112;-75
2023/06/26 02:19:27;;;;;;;9.30;6.70;;;24.70;61.40;;;;;;5053807;28;20115;-75
2023/06/26 02:21:53;;;;;;;7.85;6.85;;;24.70;61.60;;;;;;5053462;28;20051;-76
2023/06/26 02:24:19;;;;;;;9.63;7.35;;;24.70;61.60;;;;;;5053013;28;20021;-76
2023/06/26 02:26:45;;;;;;;7.75;7.05;;;24.70;61.90;;;;;;5052425;28;20036;-75
2023/06/26 02:29:12;;;;;;;9.90;6.53;;;24.70;62.30;;;;;;5052813;28;20033;-76
2023/06/26 02:31:38;;;;;;;13.57;6.90;;;24.60;62.70;;;;;;5053155;28;20066;-75
2023/06/26 02:34:04;;;;;;;8.48;6.97;;;24.60;62.40;;;;;;5052475;28;20104;-74
2023/06/26 02:36:30;;;;;;;8.75;7.07;;;24.60;61.80;;;;;;5052260;28;20043;-76
2023/06/26 02:38:56;;;;;;;8.25;7.15;;;24.50;62.00;;;;;;5052277;28;20017;-76
2023/06/26 02:41:21;;;;;;;8.02;6.63;;;24.50;62.10;;;;;;5052861;28;20025;-75
2023/06/26 02:43:47;;;;;;;8.10;7.30;;;24.50;62.60;;;;;;5051921;28;20028;-77
2023/06/26 02:46:13;;;;;;;8.02;7.22;;;24.50;63.00;;;;;;5052968;28;20024;-74
2023/06/26 02:48:39;;;;;;;8.05;7.10;;;24.50;63.50;;;;;;5052686;28;20059;-73
2023/06/26 02:51:04;;;;;;;7.80;6.78;;;24.40;63.60;;;;;;5052568;28;20017;-75
2023/06/26 02:53:31;;;;;;;8.60;7.18;;;24.40;63.90;;;;;;5052422;28;20108;-76
2023/06/26 02:55:57;;;;;;;8.18;6.90;;;24.30;64.20;;;;;;5052909;28;20111;-74
2023/06/26 02:58:22;;;;;;;8.13;7.32;;;24.30;64.50;;;;;;5054355;28;20061;-75
2023/06/26 03:00:48;;;;;;;7.15;6.50;;;24.30;64.60;;;;;;5057300;28;20041;-73
2023/06/26 03:03:14;;;;;;;16.98;7.95;;;24.20;64.80;;;;;;5077581;28;20032;-75
2023/06/26 03:05:40;;;;;;;11.70;7.18;;;24.20;64.90;;;;;;5066738;28;20021;-73
2023/06/26 03:08:05;;;;;;;11.20;7.35;;;24.20;64.90;;;;;;5073224;28;20041;-76
2023/06/26 03:10:31;;;;;;;8.27;7.47;;;24.10;65.00;;;;;;5051951;28;20017;-75
2023/06/26 03:12:57;;;;;;;8.68;7.50;;;24.00;65.00;;;;;;5052742;28;20091;-75
2023/06/26 03:15:23;;;;;;;8.05;7.25;;;24.00;65.20;;;;;;5052869;28;20025;-75
2023/06/26 03:17:48;;;;;;;8.25;7.32;;;24.00;65.80;;;;;;5052529;28;20033;-75
2023/06/26 03:20:15;;;;;;;9.25;7.13;;;23.90;66.00;;;;;;5052786;28;20017;-75
2023/06/26 03:22:41;;;;;;;10.90;7.43;;;23.90;66.20;;;;;;5052148;28;20029;-75
2023/06/26 03:25:07;;;;;;;13.25;7.32;;;23.90;66.40;;;;;;5052274;28;20028;-75
2023/06/26 03:27:33;;;;;;;8.43;7.53;;;23.80;66.40;;;;;;5052277;28;20037;-75
2023/06/26 03:29:59;;;;;;;10.75;7.60;;;23.80;66.40;;;;;;5052599;28;20029;-75
2023/06/26 03:32:24;;;;;;;10.00;7.70;;;23.70;66.60;;;;;;5052074;28;20029;-76
2023/06/26 03:34:50;;;;;;;8.70;7.85;;;23.70;67.00;;;;;;5052121;28;20147;-76
2023/06/26 03:37:16;;;;;;;8.27;7.47;;;23.70;67.10;;;;;;5051991;28;20396;-77
2023/06/26 03:39:42;;;;;;;11.07;7.85;;;23.70;67.20;;;;;;5052266;28;20017;-76
2023/06/26 03:42:07;;;;;;;8.63;7.22;;;23.60;67.20;;;;;;5052506;28;20029;-76
2023/06/26 03:44:33;;;;;;;12.45;8.00;;;23.60;67.50;;;;;;5052053;28;20025;-76
2023/06/26 03:46:59;;;;;;;9.35;7.28;;;23.60;67.70;;;;;;5052665;28;20025;-76
2023/06/26 03:49:25;;;;;;;8.48;7.68;;;23.50;67.80;;;;;;5052736;28;20049;-76
2023/06/26 03:51:51;;;;;;;9.77;7.60;;;23.50;67.70;;;;;;5052515;28;20075;-76
2023/06/26 03:54:16;;;;;;;8.27;6.97;;;23.50;67.90;;;;;;5052662;28;20053;-75
2023/06/26 03:56:42;;;;;;;9.10;7.70;;;23.50;68.30;;;;;;5052631;28;20044;-76
2023/06/26 03:59:08;;;;;;;9.77;7.53;;;23.40;68.50;;;;;;5051328;28;20025;-76
2023/06/26 04:01:36;;;;;;;9.95;7.30;;;23.50;68.70;;;;;;5051181;28;20029;-76
2023/06/26 04:04:02;;;;;;;10.23;7.82;;;23.40;68.70;;;;;;5052536;28;20025;-76
2023/06/26 04:06:29;;;;;;;7.90;7.10;;;23.40;68.90;;;;;;5052645;28;20032;-76
2023/06/26 04:08:55;;;;;;;8.90;7.82;;;23.40;69.30;;;;;;5052095;28;20044;-75
2023/06/26 04:11:20;;;;;;;8.63;7.82;;;23.30;69.50;;;;;;5052416;28;20021;-75
2023/06/26 04:13:46;;;;;;;10.65;7.13;;;23.40;69.90;;;;;;5052587;28;20036;-78
2023/06/26 04:16:12;;;;;;;9.07;7.25;;;23.40;70.00;;;;;;5052604;28;20017;-76
2023/06/26 04:18:37;;;;;;;10.38;7.13;;;23.30;69.90;;;;;;5056487;28;20099;-76
2023/06/26 04:21:11;;;;;;;8.45;7.47;;;23.30;69.80;;;;;;5055914;28;20116;-75
2023/06/26 04:23:38;;;;;;;9.45;7.40;;;23.40;70.10;;;;;;5055227;28;20029;-74
2023/06/26 04:26:05;;;;;;;8.55;6.97;;;23.30;70.10;;;;;;5055875;28;20021;-74
2023/06/26 04:28:34;;;;;;;13.20;7.80;;;23.40;70.10;;;;;;5055841;28;20571;-73
2023/06/26 04:31:01;;;;;;;8.80;6.90;;;23.40;70.50;;;;;;5054959;28;20481;-72
2023/06/26 04:33:27;;;;;;;12.27;8.02;;;23.40;70.40;;;;;;5054703;28;20095;-72
2023/06/26 04:35:53;;;;;;;9.15;7.57;;;23.30;70.30;;;;;;5055187;28;20378;-73
2023/06/26 04:38:21;;;;;;;9.48;7.70;;;23.40;70.40;;;;;;5055437;28;20025;-73
2023/06/26 04:40:47;;;;;;;12.50;7.75;;;23.40;70.60;;;;;;5055718;28;20052;-73
2023/06/26 04:43:13;;;;;;;14.20;7.57;;;23.40;70.70;;;;;;5055890;28;20499;-73
2023/06/26 04:45:39;;;;;;;8.18;7.35;;;23.40;70.60;;;;;;5054493;28;20108;-74
2023/06/26 04:48:05;;;;;;;12.98;6.95;;;23.40;70.20;;;;;;5055490;28;20029;-73
2023/06/26 04:50:31;;;;;;;9.77;7.32;;;23.40;70.30;;;;;;5055344;28;20021;-73
2023/06/26 04:52:57;;;;;;;9.80;7.68;;;23.40;70.00;;;;;;5056470;28;20083;-72
2023/06/26 04:55:24;;;;;;;9.23;7.65;;;23.40;70.20;;;;;;5055591;28;20428;-74
2023/06/26 04:57:50;;;;;;;16.52;8.10;;;23.40;70.80;;;;;;5054998;28;20503;-74
2023/06/26 05:00:17;;;;;;;12.10;7.93;;;23.40;70.20;;;;;;5054642;28;20033;-74
2023/06/26 05:02:42;;;;;;;11.88;8.00;;;23.50;70.30;;;;;;5055023;28;20481;-74
2023/06/26 05:05:08;;;;;;;13.23;8.38;;;23.50;70.80;;;;;;5054846;28;20033;-74
2023/06/26 05:07:34;;;;;;;14.52;8.48;;;23.50;70.60;;;;;;5055147;28;20058;-74
2023/06/26 05:10:00;;;;;;;12.02;8.65;;;23.50;69.70;;;;;;5055181;28;20025;-74
2023/06/26 05:12:26;;;;;;;11.05;7.43;;;23.60;69.20;;;;;;5054796;28;20036;-74
2023/06/26 05:14:51;;;;;;;17.02;8.00;;;23.60;68.90;;;;;;5054984;28;20033;-74
2023/06/26 05:17:17;;;;;;;9.18;7.35;;;23.60;68.80;;;;;;5054722;28;20021;-74
2023/06/26 05:19:43;;;;;;;13.77;8.07;;;23.60;69.00;;;;;;5055024;28;20056;-74
2023/06/26 05:22:09;;;;;;;12.77;7.75;;;23.60;69.00;;;;;;5054820;28;20018;-73
2023/06/26 05:24:38;;;;;;;10.45;7.63;;;23.70;69.10;;;;;;5054483;28;20025;-73
2023/06/26 05:27:05;;;;;;;10.82;8.38;;;23.70;68.90;;;;;;5054873;28;20048;-74
2023/06/26 05:29:32;;;;;;;12.85;8.60;;;23.70;68.90;;;;;;5054015;28;20096;-74
2023/06/26 05:31:59;;;;;;;15.82;8.20;;;23.80;69.00;;;;;;5054780;28;20108;-74
2023/06/26 05:34:28;;;;;;;8.60;7.43;;;23.80;68.80;;;;;;5055070;28;20021;-74
2023/06/26 05:36:58;;;;;;;11.95;7.53;;;23.80;68.70;;;;;;5054609;28;20049;-75
2023/06/26 05:39:24;;;;;;;13.18;8.00;;;23.90;68.60;;;;;;5054143;28;20112;-75
2023/06/26 05:41:50;;;;;;;10.98;8.15;;;23.90;69.30;;;;;;5053165;28;20025;-75
2023/06/26 05:44:16;;;;;;;10.50;7.32;;;23.90;68.30;;;;;;5054165;28;20478;-74
2023/06/26 05:46:43;;;;;;;11.38;7.88;;;23.90;68.00;;;;;;5054337;28;20075;-75
2023/06/26 05:49:08;;;;;;;8.55;7.55;;;23.90;67.80;;;;;;5054240;28;20037;-75
2023/06/26 05:51:34;;;;;;;15.15;7.75;;;24.00;67.70;;;;;;5054524;28;20025;-75
2023/06/26 05:54:00;;;;;;;12.23;7.97;;;24.00;67.70;;;;;;5054548;28;20087;-74
2023/06/26 05:56:26;;;;;;;15.05;8.00;;;24.00;67.30;;;;;;5054436;28;20021;-75
2023/06/26 05:58:53;;;;;;;15.35;7.60;;;24.00;67.00;;;;;;5054335;28;20380;-75
2023/06/26 06:01:19;;;;;;;9.93;7.82;;;24.10;66.80;;;;;;5053682;28;20064;-75
2023/06/26 06:03:45;;;;;;;9.80;7.60;;;24.10;66.90;;;;;;5053986;28;20028;-74
2023/06/26 06:06:11;;;;;;;13.80;7.18;;;24.10;66.70;;;;;;5053833;28;20033;-78
2023/06/26 06:08:37;;;;;;;11.80;7.88;;;24.20;66.50;;;;;;5054361;28;20109;-75
2023/06/26 06:11:03;;;;;;;10.25;7.70;;;24.20;66.50;;;;;;5053950;28;20516;-75
2023/06/26 06:13:29;;;;;;;11.98;7.50;;;24.20;66.10;;;;;;5053809;28;20033;-75
2023/06/26 06:15:56;;;;;;;7.35;6.47;;;24.20;65.50;;;;;;5052522;28;20029;-74
2023/06/26 06:18:21;;;;;;;7.93;7.10;;;24.30;65.40;;;;;;5053911;28;20025;-74
2023/06/26 06:20:47;;;;;;;7.95;7.13;;;24.30;65.30;;;;;;5053216;28;20025;-75
2023/06/26 06:23:13;;;;;;;9.73;8.00;;;24.30;65.00;;;;;;5053772;28;20021;-75
2023/06/26 06:25:39;;;;;;;8.07;7.25;;;24.40;65.20;;;;;;5053295;28;20487;-75
2023/06/26 06:28:05;;;;;;;11.80;7.38;;;24.50;65.40;;;;;;5053446;28;20040;-74
2023/06/26 06:30:31;;;;;;;8.55;7.68;;;24.40;65.40;;;;;;5053591;28;20021;-74
2023/06/26 06:32:58;;;;;;;8.82;7.57;;;24.50;65.30;;;;;;5053703;28;20029;-75
2023/06/26 06:35:24;;;;;;;10.38;7.65;;;24.50;65.00;;;;;;5053261;28;20072;-74
2023/06/26 06:37:50;;;;;;;9.73;7.80;;;24.60;65.00;;;;;;5053234;28;20025;-74
2023/06/26 06:40:16;;;;;;;9.43;7.10;;;24.60;64.70;;;;;;5053078;28;20377;-74
2023/06/26 06:42:42;;;;;;;11.07;7.50;;;24.70;64.60;;;;;;5053089;28;20508;-75
2023/06/26 06:45:09;;;;;;;8.63;7.55;;;24.70;64.10;;;;;;5052110;28;20032;-74
2023/06/26 06:47:34;;;;;;;11.35;7.75;;;24.70;63.80;;;;;;5053454;28;20083;-75
2023/06/26 06:50:07;;;;;;;9.35;7.65;;;24.70;63.90;;;;;;5053377;28;20493;-74
2023/06/26 06:52:38;;;;;;;9.45;7.80;;;24.80;64.40;;;;;;5053324;28;20450;-75
2023/06/26 06:55:08;;;;;;;9.23;7.57;;;24.90;64.70;;;;;;5053307;28;20028;-74
2023/06/26 06:57:37;;;;;;;8.52;7.45;;;24.90;64.50;;;;;;5053617;28;20052;-74
2023/06/26 07:00:08;;;;;;;7.93;7.13;;;24.90;64.00;;;;;;5053296;28;20071;-76
2023/06/26 07:02:39;;;;;;;7.93;7.15;;;25.00;64.00;;;;;;5053400;28;20029;-74
2023/06/26 07:05:05;;;;;;;9.95;7.53;;;25.00;64.20;;;;;;5053336;28;20024;-74
2023/06/26 07:07:33;;;;;;;9.15;7.10;;;25.00;64.40;;;;;;5053050;28;20036;-74
2023/06/26 07:10:10;;;;;;;9.55;7.30;;;25.10;64.40;;;;;;5053102;28;20076;-74
2023/06/26 07:12:36;;;;;;;8.18;7.20;;;25.20;64.20;;;;;;5053120;28;20055;-75
2023/06/26 07:15:04;;;;;;;9.70;7.18;;;25.20;64.80;;;;;;5052946;28;20473;-74
2023/06/26 07:17:33;;;;;;;8.93;7.32;;;25.20;64.90;;;;;;5052897;28;20108;-74
2023/06/26 07:20:00;;;;;;;9.10;7.85;;;25.20;64.40;;;;;;5052919;28;20032;-75
2023/06/26 07:22:26;;;;;;;12.77;8.10;;;25.30;64.50;;;;;;5052959;28;20028;-75
2023/06/26 07:24:52;;;;;;;12.18;7.35;;;25.40;63.50;;;;;;5052913;28;20067;-74
2023/06/26 07:27:19;;;;;;;11.63;7.18;;;25.40;63.20;;;;;;5052853;28;20389;-74
2023/06/26 07:29:45;;;;;;;10.55;7.22;;;25.40;62.90;;;;;;5052843;28;20027;-74
2023/06/26 07:32:11;;;;;;;13.05;7.82;;;25.40;62.60;;;;;;5052889;28;20029;-73
2023/06/26 07:34:37;;;;;;;11.13;7.60;;;25.50;62.70;;;;;;5052826;28;20029;-74
2023/06/26 07:37:03;;;;;;;10.02;7.82;;;25.50;62.60;;;;;;5060685;22;20056;-73
2023/06/26 07:39:29;;;;;;;11.70;7.03;;;25.60;62.80;;;;;;5052967;28;20116;-74
2023/06/26 07:41:55;;;;;;;11.25;7.95;;;25.70;63.00;;;;;;5052802;28;20071;-75
2023/06/26 07:44:22;;;;;;;10.07;7.35;;;25.70;63.50;;;;;;5052602;28;20493;-74
2023/06/26 07:46:47;;;;;;;9.70;7.20;;;25.80;62.60;;;;;;5052799;28;20028;-73
2023/06/26 07:49:13;;;;;;;9.02;6.90;;;25.80;61.80;;;;;;5052776;28;20037;-73
2023/06/26 07:51:39;;;;;;;8.60;7.38;;;25.90;61.60;;;;;;5053794;28;20021;-73
2023/06/26 07:54:05;;;;;;;8.52;7.35;;;25.90;61.40;;;;;;5056736;28;20108;-74
2023/06/26 07:56:30;;;;;;;8.40;7.53;;;26.00;61.70;;;;;;5056467;28;20025;-74
2023/06/26 07:58:57;;;;;;;11.43;7.50;;;26.00;61.00;;;;;;5056904;28;20032;-73
2023/06/26 08:01:24;;;;;;;12.93;7.53;;;26.00;61.00;;;;;;5056656;28;20045;-74
2023/06/26 08:03:50;;;;;;;8.73;7.82;;;26.10;60.80;;;;;;5056443;28;20032;-74
2023/06/26 08:06:16;;;;;;;9.40;7.75;;;26.10;60.70;;;;;;5056332;28;20032;-75
2023/06/26 08:08:42;;;;;;;8.80;7.20;;;26.20;60.50;;;;;;5056649;28;20040;-74
2023/06/26 08:11:07;;;;;;;8.32;7.10;;;26.20;60.40;;;;;;5055443;28;20439;-74
2023/06/26 08:13:33;;;;;;;9.18;7.30;;;26.20;60.60;;;;;;5056576;28;20025;-74
2023/06/26 08:15:59;;;;;;;12.40;6.93;;;26.30;60.90;;;;;;5056314;28;20032;-74
2023/06/26 08:18:24;;;;;;;9.90;6.57;;;26.30;60.10;;;;;;5056260;28;20101;-74
2023/06/26 08:20:50;;;;;;;9.23;6.88;;;26.40;60.00;;;;;;5056397;28;20021;-75
2023/06/26 08:23:16;;;;;;;8.30;6.80;;;26.40;60.10;;;;;;5056321;28;20098;-74
2023/06/26 08:25:42;;;;;;;11.98;7.25;;;26.40;60.20;;;;;;5056424;28;20033;-74
2023/06/26 08:28:07;;;;;;;9.07;7.32;;;26.50;60.30;;;;;;5056298;28;20119;-74
2023/06/26 08:30:33;;;;;;;11.27;7.50;;;26.50;59.80;;;;;;5056314;28;20025;-74
2023/06/26 08:32:59;;;;;;;9.52;7.13;;;26.60;59.30;;;;;;5056036;28;20392;-73
2023/06/26 08:35:24;;;;;;;13.63;6.85;;;26.60;58.90;;;;;;5055975;28;20047;-75
2023/06/26 08:37:51;;;;;;;8.57;6.85;;;26.70;58.30;;;;;;5056139;28;20079;-74
2023/06/26 08:40:18;;;;;;;12.32;6.90;;;26.70;58.20;;;;;;5056076;28;20021;-75
2023/06/26 08:42:44;;;;;;;9.77;7.05;;;26.80;58.30;;;;;;5055981;28;20021;-74
2023/06/26 08:45:11;;;;;;;9.38;6.95;;;26.90;57.90;;;;;;5055728;28;20029;-74
2023/06/26 08:47:37;;;;;;;9.20;7.20;;;26.90;58.00;;;;;;5055696;28;20029;-73
2023/06/26 08:50:09;;;;;;;9.85;6.97;;;26.90;58.50;;;;;;5055950;28;20029;-74
2023/06/26 08:52:49;;;;;;;9.80;6.57;;;27.00;58.00;;;;;;5056026;28;20461;-73
2023/06/26 08:55:16;;;;;;;12.75;6.75;;;27.10;58.60;;;;;;5055560;28;20060;-74
2023/06/26 08:57:42;;;;;;;7.60;6.65;;;27.10;58.20;;;;;;5055646;28;20036;-72
2023/06/26 09:00:09;;;;;;;7.57;6.32;;;27.20;58.30;;;;;;5055531;28;20096;-73
2023/06/26 09:02:39;;;;;;;10.82;6.30;;;27.20;57.70;;;;;;5055177;28;20036;-74
2023/06/26 09:05:05;;;;;;;11.52;6.88;;;27.20;56.50;;;;;;5054793;28;20021;-74
2023/06/26 09:07:30;;;;;;;7.60;6.80;;;27.30;55.80;;;;;;5055359;28;20035;-74
2023/06/26 09:09:56;;;;;;;9.48;6.82;;;27.40;56.40;;;;;;5055336;28;20116;-73
2023/06/26 09:12:22;;;;;;;7.72;6.70;;;27.40;56.40;;;;;;5055223;28;20032;-73
2023/06/26 09:14:49;;;;;;;8.27;6.72;;;27.40;56.40;;;;;;5055356;28;20025;-73
2023/06/26 09:17:14;;;;;;;8.10;6.35;;;27.50;56.90;;;;;;5055566;28;20416;-74
2023/06/26 09:19:40;;;;;;;8.50;6.38;;;27.50;57.10;;;;;;5055095;28;20029;-74
2023/06/26 09:22:13;;;;;;;7.60;6.80;;;27.60;56.70;;;;;;5053814;28;20029;-75
2023/06/26 09:24:42;;;;;;;8.15;6.70;;;27.60;55.70;;;;;;5055162;28;20036;-74
2023/06/26 09:27:07;;;;;;;12.43;6.80;;;27.60;55.80;;;;;;5054896;28;20032;-73
2023/06/26 09:29:34;;;;;;;8.10;6.57;;;27.70;57.00;;;;;;5055001;28;20025;-74
2023/06/26 09:32:00;;;;;;;8.80;7.00;;;27.80;57.40;;;;;;5054745;28;20515;-73
2023/06/26 09:34:33;;;;;;;7.97;6.82;;;27.80;56.10;;;;;;5055220;28;20079;-73
2023/06/26 09:37:02;;;;;;;9.68;6.45;;;27.90;56.10;;;;;;5055122;28;20411;-73
2023/06/26 09:39:30;;;;;;;9.65;6.53;;;28.00;56.50;;;;;;5055083;28;20017;-74
2023/06/26 09:41:57;;;;;;;11.88;6.65;;;28.00;56.50;;;;;;5055056;28;20025;-73
2023/06/26 09:44:23;;;;;;;7.72;6.93;;;28.10;56.30;;;;;;5058183;28;20108;-75
2023/06/26 09:46:49;;;;;;;7.90;6.40;;;28.10;56.80;;;;;;5078682;28;20484;-74
2023/06/26 09:49:15;;;;;;;7.50;6.15;;;28.20;56.50;;;;;;5065638;28;20033;-73
2023/06/26 09:51:42;;;;;;;10.00;6.05;;;28.20;56.60;;;;;;5078583;28;20013;-74
2023/06/26 09:54:09;;;;;;;7.53;6.75;;;28.30;56.80;;;;;;5057009;28;20025;-74
2023/06/26 09:56:35;;;;;;;8.63;6.28;;;28.30;56.70;;;;;;5054671;28;20021;-72
2023/06/26 09:59:03;;;;;;;8.93;7.07;;;28.40;56.60;;;;;;5054367;28;20377;-73
2023/06/26 10:01:30;;;;;;;8.07;6.25;;;28.50;56.50;;;;;;5054459;28;20032;-73
2023/06/26 10:03:59;;;;;;;8.88;5.82;;;28.50;56.40;;;;;;5054484;28;20100;-73
2023/06/26 10:06:36;;;;;;;8.25;6.40;;;28.50;56.80;;;;;;5054380;28;20504;-73
2023/06/26 10:09:04;;;;;;;8.45;6.57;;;28.60;57.40;;;;;;5054315;28;20098;-73
2023/06/26 10:11:39;;;;;;;9.13;6.53;;;28.70;56.70;;;;;;5054288;28;20027;-73
2023/06/26 10:14:07;;;;;;;7.93;6.15;;;28.70;55.80;;;;;;5053783;28;20025;-73
2023/06/26 10:16:36;;;;;;;7.95;6.75;;;28.70;55.70;;;;;;5054185;28;20024;-73
2023/06/26 10:19:07;;;;;;;6.55;5.72;;;28.80;55.40;;;;;;5054004;28;20036;-73
2023/06/26 10:21:34;;;;;;;;;;;28.80;55.70;;;;;;5054176;28;20029;-74
2023/06/26 10:24:02;;;;;;;7.15;6.30;;;28.90;56.00;;;;;;5054066;28;19905;-73
2023/06/26 10:26:29;;;;;;;13.70;6.70;;;28.90;55.40;;;;;;5054184;28;20070;-73
2023/06/26 10:28:57;;;;;;;7.07;6.30;;;28.90;55.20;;;;;;5053742;28;20060;-74
2023/06/26 10:31:26;;;;;;;13.30;6.72;;;29.00;56.20;;;;;;5053520;28;20107;-73
2023/06/26 10:33:52;;;;;;;8.57;6.95;;;29.00;55.80;;;;;;5053737;28;20024;-73
2023/06/26 10:36:31;;;;;;;8.63;6.30;;;29.00;55.50;;;;;;5052153;28;20057;-73
2023/06/26 10:39:01;;;;;;;6.95;6.22;;;29.10;55.40;;;;;;5053688;28;20028;-73
2023/06/26 10:41:27;;;;;;;7.50;6.80;;;29.10;54.80;;;;;;5052655;28;20044;-73
2023/06/26 10:43:59;;;;;;;8.27;6.38;;;29.10;55.20;;;;;;5053233;28;20096;-73
2023/06/26 10:46:26;;;;;;;7.47;5.85;;;29.20;54.60;;;;;;5053321;28;20040;-73
2023/06/26 10:49:00;;;;;;;7.22;6.53;;;29.20;54.40;;;;;;5053822;28;20599;-72
2023/06/26 10:51:29;;;;;;;10.13;6.10;;;29.20;54.40;;;;;;5053405;28;20100;-72
2023/06/26 10:53:58;;;;;;;9.57;6.97;;;29.30;55.00;;;;;;5053379;28;20051;-72
2023/06/26 10:56:45;;;;;;;7.53;6.43;;;29.30;54.60;;;;;;5053391;28;20031;-72
2023/06/26 10:59:23;;;;;;;7.18;6.05;;;29.30;54.50;;;;;;5053324;28;20087;-72
2023/06/26 11:02:02;;;;;;;7.88;6.45;;;29.40;54.40;;;;;;5053423;28;20385;-72
2023/06/26 11:04:49;;;;;;;10.10;6.68;;;29.40;53.90;;;;;;5053238;28;20028;-72
2023/06/26 11:07:25;;;;;;;10.15;6.15;;;29.40;54.30;;;;;;5052966;28;20434;-71
2023/06/26 11:10:06;;;;;;;9.30;7.47;;;29.40;54.10;;;;;;5052918;28;20048;-72
2023/06/26 11:12:42;;;;;;;9.48;6.65;;;29.50;54.20;;;;;;5052852;28;20059;-72
2023/06/26 11:15:27;;;;;;;9.05;6.90;;;29.50;54.00;;;;;;5052679;28;20032;-73
2023/06/26 11:17:54;;;;;;;7.35;6.63;;;29.50;54.10;;;;;;5052926;28;20477;-73
2023/06/26 11:20:20;;;;;;;9.63;6.80;;;29.60;54.40;;;;;;5053071;28;20025;-73
2023/06/26 11:22:46;;;;;;;9.75;6.50;;;29.70;54.70;;;;;;5053268;28;20034;-74
2023/06/26 11:25:12;;;;;;;8.15;6.15;;;29.70;54.40;;;;;;5052872;28;20029;-73
2023/06/26 11:27:39;;;;;;;7.88;6.68;;;29.80;54.80;;;;;;5052111;28;20098;-74
2023/06/26 11:30:10;;;;;;;6.57;5.93;;;29.80;55.00;;;;;;5052551;28;20021;-74
2023/06/26 11:32:39;;;;;;;7.38;6.55;;;29.90;54.70;;;;;;5052914;28;20392;-74
2023/06/26 11:35:05;;;;;;;8.43;6.53;;;29.90;54.60;;;;;;5052712;28;20025;-73
2023/06/26 11:37:32;;;;;;;9.15;6.25;;;29.90;54.90;;;;;;5051540;28;20059;-72
2023/06/26 11:39:58;;;;;;;6.95;6.25;;;29.90;54.70;;;;;;5052582;28;20025;-74
2023/06/26 11:42:25;;;;;;;8.48;6.28;;;30.00;54.90;;;;;;5052447;28;20029;-73
2023/06/26 11:44:52;;;;;;;7.25;6.53;;;30.00;54.40;;;;;;5052609;28;20021;-74
2023/06/26 11:47:19;;;;;;;8.95;6.47;;;30.10;54.70;;;;;;5052654;28;20024;-72
2023/06/26 11:49:49;;;;;;;7.38;6.05;;;30.10;54.70;;;;;;5052645;28;20032;-79
2023/06/26 11:52:15;;;;;;;10.55;7.05;;;30.10;54.90;;;;;;5052803;28;20025;-72
2023/06/26 11:54:42;;;;;;;8.93;5.97;;;30.10;54.50;;;;;;5052499;28;20028;-74
2023/06/26 11:57:08;;;;;;;7.57;6.63;;;30.20;54.60;;;;;;5052544;28;20044;-73
2023/06/26 11:59:36;;;;;;;7.05;6.32;;;30.20;54.10;;;;;;5052654;28;20067;-72
2023/06/26 12:02:09;;;;;;;6.40;5.75;;;30.20;55.20;;;;;;5052885;28;20040;-74
2023/06/26 12:04:37;;;;;;;6.75;5.90;;;30.20;55.00;;;;;;5052569;28;20078;-74
2023/06/26 12:07:05;;;;;;;8.10;6.35;;;30.30;54.90;;;;;;5052092;28;20033;-73
2023/06/26 12:09:33;;;;;;;8.25;6.20;;;30.30;54.70;;;;;;5052259;28;20033;-73
2023/06/26 12:11:59;;;;;;;7.60;5.82;;;30.30;53.90;;;;;;5051001;28;20021;-72
2023/06/26 12:14:28;;;;;;;8.70;6.35;;;30.40;54.00;;;;;;5051936;28;20468;-72
2023/06/26 12:16:54;;;;;;;7.40;6.22;;;30.40;53.70;;;;;;5051871;28;20498;-72
2023/06/26 12:19:28;;;;;;;10.80;6.20;;;30.40;53.60;;;;;;5052431;28;20021;-73
2023/06/26 12:21:56;;;;;;;8.27;6.07;;;30.40;54.10;;;;;;5052315;28;20123;-72
2023/06/26 12:24:23;;;;;;;11.38;6.65;;;30.40;54.20;;;;;;5052202;28;20134;-71
2023/06/26 12:26:56;;;;;;;8.40;6.40;;;30.40;54.50;;;;;;5052260;28;20473;-72
2023/06/26 12:29:29;;;;;;;10.90;6.80;;;30.40;54.60;;;;;;5052398;28;20033;-71
2023/06/26 12:31:55;;;;;;;6.65;5.95;;;30.40;55.10;;;;;;5052799;28;20381;-71
2023/06/26 12:34:25;;;;;;;7.57;6.40;;;30.50;55.60;;;;;;5052222;28;20025;-70
2023/06/26 12:36:51;;;;;;;6.90;6.20;;;30.40;54.70;;;;;;5051870;28;20045;-70
2023/06/26 12:39:18;;;;;;;10.40;6.20;;;30.50;54.40;;;;;;5054253;28;20025;-70
2023/06/26 12:41:59;;;;;;;11.05;6.47;;;30.50;54.00;;;;;;5055693;28;20021;-71
2023/06/26 12:44:29;;;;;;;8.17;6.10;;;30.50;54.20;;;;;;5055477;28;20539;-70